Time;durP1;ratioP1;P1;durP2;ratioP2;P2;SDS_P1;SDS_P2;PMS_P1;PMS_P2;Temp;Humidity;BMP_temperature;BMP_pressure;BME280_temperature;BME280_humidity;BME280_pressure;Samples;Min_cycle;Max_cycle;Signal;HPM_P1;HPM_P2
2022/11/12 00:00:18;;;;;;;17.33;4.50;;;13.10;99.90;;;;;;5031053;28;20221;-56
2022/11/12 00:02:44;;;;;;;12.10;4.17;;;13.00;99.90;;;;;;5031174;28;20174;-56
2022/11/12 00:05:10;;;;;;;21.60;4.50;;;12.90;99.90;;;;;;5031274;28;20296;-57
2022/11/12 00:07:35;;;;;;;19.20;4.20;;;12.90;99.90;;;;;;5031229;28;20561;-57
2022/11/12 00:10:01;;;;;;;15.17;4.20;;;12.90;99.90;;;;;;5031165;28;20213;-57
2022/11/12 00:12:27;;;;;;;18.90;4.43;;;12.80;99.90;;;;;;5030914;28;20284;-57
2022/11/12 00:14:53;;;;;;;12.87;4.33;;;12.80;99.90;;;;;;5031110;28;20196;-57
2022/11/12 00:17:18;;;;;;;15.90;4.30;;;12.80;99.90;;;;;;5031200;28;20162;-57
2022/11/12 00:19:44;;;;;;;13.47;4.17;;;12.80;99.90;;;;;;5030942;28;20166;-57
2022/11/12 00:22:10;;;;;;;14.57;3.67;;;12.80;99.90;;;;;;5030968;28;20180;-56
2022/11/12 00:24:35;;;;;;;17.10;3.83;;;12.70;99.90;;;;;;5030902;28;20178;-56
2022/11/12 00:27:01;;;;;;;14.70;3.63;;;12.60;99.90;;;;;;5029423;28;20173;-57
2022/11/12 00:29:27;;;;;;;12.63;3.43;;;12.60;99.90;;;;;;5029230;28;20235;-56
2022/11/12 00:31:52;;;;;;;10.00;4.00;;;12.50;99.90;;;;;;5028460;28;20186;-56
2022/11/12 00:34:18;;;;;;;12.00;3.40;;;12.50;99.90;;;;;;5027691;28;20254;-56
2022/11/12 00:36:44;;;;;;;13.03;3.90;;;12.40;99.90;;;;;;5028941;28;20188;-57
2022/11/12 00:39:09;;;;;;;12.50;4.17;;;12.40;99.90;;;;;;5029584;28;20648;-56
2022/11/12 00:41:35;;;;;;;11.17;3.93;;;12.40;99.90;;;;;;5030405;28;20533;-56
2022/11/12 00:44:01;;;;;;;11.17;3.87;;;12.40;99.90;;;;;;5030120;28;20182;-56
2022/11/12 00:46:26;;;;;;;18.00;3.90;;;12.30;99.90;;;;;;5030621;28;20202;-55
2022/11/12 00:48:52;;;;;;;11.67;4.27;;;12.30;99.90;;;;;;5030473;28;20179;-55
2022/11/12 00:51:18;;;;;;;18.83;3.90;;;12.30;99.90;;;;;;5030704;28;20189;-55
2022/11/12 00:53:47;;;;;;;9.63;3.53;;;12.30;99.90;;;;;;5030802;28;20244;-55
2022/11/12 00:56:14;;;;;;;12.17;4.40;;;12.30;99.90;;;;;;5030656;28;20221;-56
2022/11/12 00:58:39;;;;;;;18.43;3.87;;;12.40;99.90;;;;;;5032030;28;20224;-57
2022/11/12 01:01:11;;;;;;;12.53;4.10;;;12.40;99.90;;;;;;5034591;28;20182;-56
2022/11/12 01:03:39;;;;;;;12.70;4.07;;;12.40;99.90;;;;;;5034483;28;20173;-56
2022/11/12 01:06:10;;;;;;;10.83;3.80;;;12.40;99.90;;;;;;5034436;28;20170;-56
2022/11/12 01:08:36;;;;;;;13.43;4.20;;;12.30;99.90;;;;;;5034367;28;20492;-55
2022/11/12 01:11:11;;;;;;;12.87;3.77;;;12.30;99.90;;;;;;5034277;28;20271;-55
2022/11/12 01:13:38;;;;;;;10.90;4.27;;;12.40;99.90;;;;;;5034261;28;20220;-55
2022/11/12 01:16:10;;;;;;;12.20;3.97;;;12.40;99.90;;;;;;5034265;28;20176;-55
2022/11/12 01:18:35;;;;;;;10.60;4.27;;;12.40;99.90;;;;;;5034195;28;20204;-56
2022/11/12 01:21:03;;;;;;;17.97;4.47;;;12.40;99.90;;;;;;5034240;28;20275;-55
2022/11/12 01:23:35;;;;;;;9.07;4.17;;;12.40;99.90;;;;;;5033954;28;20201;-55
2022/11/12 01:26:21;;;;;;;10.73;4.40;;;12.40;99.90;;;;;;5033075;28;20174;-55
2022/11/12 01:28:47;;;;;;;15.70;3.70;;;12.40;99.90;;;;;;5032363;28;20188;-55
2022/11/12 01:31:15;;;;;;;11.10;4.30;;;12.50;99.90;;;;;;5030510;28;20212;-55
2022/11/12 01:33:41;;;;;;;15.60;4.17;;;12.50;99.90;;;;;;5033113;28;20275;-56
2022/11/12 01:36:08;;;;;;;13.37;3.90;;;12.60;99.90;;;;;;5033548;28;20827;-56
2022/11/12 01:38:37;;;;;;;9.03;3.70;;;12.50;99.90;;;;;;5033778;28;20181;-56
2022/11/12 01:41:04;;;;;;;16.03;5.73;;;12.60;99.90;;;;;;5033720;28;20186;-56
2022/11/12 01:43:30;;;;;;;16.03;3.90;;;12.80;99.90;;;;;;5033936;28;20185;-56
2022/11/12 01:45:58;;;;;;;14.50;3.87;;;12.70;99.90;;;;;;5033439;28;20580;-56
2022/11/12 01:48:33;;;;;;;14.30;3.77;;;12.70;99.90;;;;;;5032980;28;20178;-56
2022/11/12 01:51:02;;;;;;;14.97;3.43;;;12.70;99.90;;;;;;5033176;28;20205;-56
2022/11/12 01:53:31;;;;;;;9.83;4.43;;;12.70;99.90;;;;;;5033153;28;20185;-56
2022/11/12 01:55:58;;;;;;;15.67;3.80;;;12.60;99.90;;;;;;5033253;28;20595;-56
2022/11/12 01:58:28;;;;;;;15.87;3.90;;;12.60;99.90;;;;;;5032733;28;20200;-57
2022/11/12 02:00:55;;;;;;;12.00;3.40;;;12.60;99.90;;;;;;5029723;28;20208;-57
2022/11/12 02:03:23;;;;;;;16.07;4.00;;;12.60;99.90;;;;;;5033596;28;20263;-57
2022/11/12 02:05:54;;;;;;;9.63;3.20;;;12.60;99.90;;;;;;5033305;28;20181;-57
2022/11/12 02:08:22;;;;;;;10.50;3.17;;;12.60;99.90;;;;;;5033385;28;20173;-56
2022/11/12 02:10:48;;;;;;;9.30;3.50;;;12.60;99.90;;;;;;5031881;28;20252;-56
2022/11/12 02:15:59;;;;;;;8.87;3.10;;;12.60;99.90;;;;;;5033313;28;20667;-56
2022/11/12 02:18:24;;;;;;;11.20;3.20;;;12.60;99.90;;;;;;5031755;28;20170;-57
2022/11/12 02:20:56;;;;;;;8.77;2.90;;;12.60;99.90;;;;;;5032946;28;20182;-57
2022/11/12 02:23:22;;;;;;;8.63;3.50;;;12.60;99.90;;;;;;5033092;28;20177;-56
2022/11/12 02:25:47;;;;;;;9.30;3.30;;;12.60;99.90;;;;;;5032807;28;20237;-56
2022/11/12 02:28:14;;;;;;;14.83;3.53;;;12.60;99.90;;;;;;5033014;28;20197;-57
2022/11/12 02:30:43;;;;;;;11.47;3.40;;;12.50;99.90;;;;;;5031654;28;20217;-57
2022/11/12 02:33:09;;;;;;;12.00;3.40;;;12.50;99.90;;;;;;5030583;28;20166;-57
2022/11/12 02:35:34;;;;;;;11.43;3.20;;;12.50;99.90;;;;;;5030051;28;20200;-56
2022/11/12 02:38:01;;;;;;;10.37;3.10;;;12.40;99.90;;;;;;5031426;28;20170;-57
2022/11/12 02:40:26;;;;;;;14.33;3.83;;;12.40;99.90;;;;;;5032330;28;20169;-57
2022/11/12 02:42:52;;;;;;;10.07;3.30;;;12.40;99.90;;;;;;5032534;28;21353;-56
2022/11/12 02:45:18;;;;;;;11.37;3.00;;;12.40;99.90;;;;;;5032602;28;20202;-55
2022/11/12 02:47:44;;;;;;;13.27;3.53;;;12.50;99.90;;;;;;5032677;28;20192;-55
2022/11/12 02:50:11;;;;;;;9.83;3.00;;;12.50;99.90;;;;;;5032240;28;20573;-55
2022/11/12 02:52:36;;;;;;;15.00;3.80;;;12.50;99.90;;;;;;5032506;28;20177;-56
2022/11/12 02:55:02;;;;;;;10.70;3.17;;;12.50;99.90;;;;;;5032247;28;20208;-56
2022/11/12 02:57:29;;;;;;;12.50;3.47;;;12.50;99.90;;;;;;5032342;28;20360;-56
2022/11/12 02:59:54;;;;;;;10.23;3.07;;;12.50;99.90;;;;;;5032017;28;20213;-56
2022/11/12 03:02:20;;;;;;;9.07;3.60;;;12.70;99.90;;;;;;5031821;28;20236;-56
2022/11/12 03:04:46;;;;;;;10.33;3.13;;;12.60;99.90;;;;;;5031675;28;20188;-56
2022/11/12 03:07:11;;;;;;;12.47;3.33;;;12.80;99.90;;;;;;5031877;28;20260;-56
2022/11/12 03:09:37;;;;;;;8.07;2.97;;;12.70;99.90;;;;;;5014468;28;20687;-56
2022/11/12 03:12:03;;;;;;;13.50;3.30;;;12.60;99.90;;;;;;5031553;28;20185;-55
2022/11/12 03:14:28;;;;;;;13.37;3.70;;;12.60;99.90;;;;;;5031970;28;20182;-55
2022/11/12 03:16:54;;;;;;;9.50;3.00;;;12.80;99.90;;;;;;5032068;28;20287;-55
2022/11/12 03:19:20;;;;;;;14.83;3.67;;;12.60;99.90;;;;;;5031904;28;20219;-55
2022/11/12 03:21:45;;;;;;;10.60;3.20;;;12.70;99.90;;;;;;5031539;28;20184;-55
2022/11/12 03:24:11;;;;;;;7.73;3.20;;;12.50;99.90;;;;;;5031781;28;20755;-55
2022/11/12 03:26:37;;;;;;;10.20;3.63;;;12.50;99.90;;;;;;5031772;28;20182;-56
2022/11/12 03:29:02;;;;;;;8.53;3.07;;;12.50;99.90;;;;;;5031837;28;20206;-55
2022/11/12 03:31:28;;;;;;;8.40;3.30;;;12.40;99.90;;;;;;5030533;28;20691;-55
2022/11/12 03:33:54;;;;;;;13.10;3.60;;;12.30;99.90;;;;;;5030185;28;20532;-55
2022/11/12 03:36:20;;;;;;;7.43;3.37;;;12.40;99.90;;;;;;5030869;28;20604;-55
2022/11/12 03:38:45;;;;;;;11.43;3.60;;;11.90;99.90;;;;;;5028005;28;20190;-56
2022/11/12 03:41:11;;;;;;;12.70;4.07;;;12.00;99.90;;;;;;5031539;28;20174;-57
2022/11/12 03:43:37;;;;;;;16.20;3.80;;;11.90;99.90;;;;;;5031502;28;20186;-56
2022/11/12 03:46:02;;;;;;;10.57;3.07;;;11.90;99.90;;;;;;5031311;28;20174;-56
2022/11/12 03:48:28;;;;;;;10.87;3.50;;;11.70;99.90;;;;;;5031407;28;20232;-57
2022/11/12 03:50:57;;;;;;;7.37;3.20;;;11.80;99.90;;;;;;5031396;28;20296;-55
2022/11/12 03:53:23;;;;;;;8.87;3.53;;;11.80;99.90;;;;;;5031202;28;20177;-55
2022/11/12 03:55:49;;;;;;;11.83;3.80;;;11.50;99.90;;;;;;5031321;28;20173;-56
2022/11/12 03:58:15;;;;;;;10.13;3.53;;;11.70;99.90;;;;;;5031285;28;20257;-55
2022/11/12 04:00:40;;;;;;;11.57;3.70;;;11.50;99.90;;;;;;5031207;28;20560;-56
2022/11/12 04:03:06;;;;;;;11.73;3.30;;;11.50;99.90;;;;;;5031231;28;20170;-56
2022/11/12 04:08:37;;;;;;;11.53;3.90;;;11.50;99.90;;;;;;5031247;28;20223;-57
2022/11/12 04:11:08;;;;;;;18.90;3.70;;;11.40;99.90;;;;;;5031032;28;20225;-57
2022/11/12 04:13:34;;;;;;;8.87;3.87;;;11.50;99.90;;;;;;5030796;28;20169;-57
2022/11/12 04:21:54;;;;;;;12.30;4.17;;;11.40;99.90;;;;;;5031170;28;20188;-57
2022/11/12 04:27:33;;;;;;;10.50;3.97;;;11.60;99.90;;;;;;5031291;28;20591;-57
2022/11/12 04:32:47;;;;;;;15.37;4.30;;;11.50;99.90;;;;;;5031088;28;20559;-57
2022/11/12 04:35:13;;;;;;;8.27;3.50;;;11.60;99.90;;;;;;5034830;28;20265;-56
2022/11/12 04:37:45;;;;;;;9.80;3.93;;;11.80;99.90;;;;;;5027360;28;20775;-57
2022/11/12 04:45:49;;;;;;;8.10;3.93;;;11.60;99.90;;;;;;5035126;28;20173;-57
2022/11/12 04:48:15;;;;;;;10.37;4.57;;;11.50;99.90;;;;;;5034771;28;20189;-57
2022/11/12 04:50:43;;;;;;;9.13;3.63;;;11.30;99.90;;;;;;5034711;28;20213;-56
2022/11/12 04:53:09;;;;;;;13.43;3.93;;;11.20;99.90;;;;;;5034640;28;20185;-56
2022/11/12 04:55:35;;;;;;;11.90;4.33;;;11.40;99.90;;;;;;5033335;28;20182;-56
2022/11/12 04:58:01;;;;;;;10.13;3.63;;;11.20;99.90;;;;;;5034563;28;20922;-56
2022/11/12 05:00:27;;;;;;;9.83;4.00;;;11.60;99.90;;;;;;5034041;28;20225;-56
2022/11/12 05:02:53;;;;;;;11.63;4.23;;;11.50;99.90;;;;;;5034469;28;20178;-57
2022/11/12 05:05:18;;;;;;;10.40;3.93;;;11.30;99.90;;;;;;5034248;28;20769;-56
2022/11/12 05:07:44;;;;;;;12.37;4.60;;;11.30;99.90;;;;;;5034217;28;20170;-57
2022/11/12 05:10:10;;;;;;;15.53;4.60;;;11.40;99.90;;;;;;5034048;28;20210;-57
2022/11/12 05:12:36;;;;;;;14.37;4.57;;;11.30;99.90;;;;;;5034091;28;20178;-56
2022/11/12 05:15:02;;;;;;;10.60;4.60;;;11.30;99.90;;;;;;5034007;28;20178;-57
2022/11/12 05:17:28;;;;;;;12.30;4.67;;;11.20;99.90;;;;;;5032786;28;20273;-56
2022/11/12 05:19:53;;;;;;;12.20;4.73;;;11.30;99.90;;;;;;5034241;28;20213;-57
2022/11/12 05:22:19;;;;;;;17.47;5.40;;;11.30;99.90;;;;;;5033883;28;20288;-56
2022/11/12 05:24:45;;;;;;;12.33;4.93;;;11.30;99.90;;;;;;5034039;28;20178;-56
2022/11/12 05:27:16;;;;;;;14.33;5.20;;;11.30;99.90;;;;;;5033574;28;20264;-56
2022/11/12 05:29:42;;;;;;;9.60;5.00;;;11.30;99.90;;;;;;5034024;28;20579;-56
2022/11/12 05:32:11;;;;;;;12.93;5.43;;;11.50;99.90;;;;;;5033761;28;20224;-56
2022/11/12 05:34:37;;;;;;;17.80;6.63;;;11.40;99.90;;;;;;5025581;28;20390;-55
2022/11/12 05:37:05;;;;;;;14.73;5.87;;;11.40;99.90;;;;;;5033778;28;20268;-55
2022/11/12 05:39:30;;;;;;;12.00;5.67;;;11.40;99.90;;;;;;5033895;28;20170;-55
2022/11/12 05:41:56;;;;;;;12.17;5.60;;;11.40;99.90;;;;;;5033630;28;20578;-55
2022/11/12 05:44:22;;;;;;;20.50;6.90;;;11.40;99.90;;;;;;5033573;28;20189;-55
2022/11/12 05:46:49;;;;;;;12.83;7.10;;;11.50;99.90;;;;;;5033819;28;20170;-55
2022/11/12 05:49:15;;;;;;;15.70;6.73;;;;;;;;;;5033620;28;20201;-55
2022/11/12 05:51:41;;;;;;;17.23;6.43;;;11.60;99.90;;;;;;5033614;28;20241;-56
2022/11/12 05:54:07;;;;;;;19.67;6.73;;;11.70;99.90;;;;;;5033508;28;20286;-56
2022/11/12 05:56:34;;;;;;;14.17;6.73;;;11.80;99.90;;;;;;5033494;28;20173;-55
2022/11/12 05:59:03;;;;;;;14.07;6.70;;;11.80;99.90;;;;;;5033536;28;20224;-55
2022/11/12 06:01:29;;;;;;;13.63;6.33;;;11.80;99.90;;;;;;5033610;28;20626;-56
2022/11/12 06:03:55;;;;;;;17.77;6.47;;;11.80;99.90;;;;;;5033447;28;20223;-56
2022/11/12 06:06:21;;;;;;;13.20;6.37;;;11.80;99.90;;;;;;5033363;28;20197;-55
2022/11/12 06:08:47;;;;;;;12.27;6.20;;;11.90;99.90;;;;;;5033300;28;20165;-55
2022/11/12 06:11:13;;;;;;;12.73;6.50;;;11.90;99.90;;;;;;5033198;28;20263;-60
2022/11/12 06:13:38;;;;;;;13.57;6.67;;;11.90;99.90;;;;;;5033233;28;20181;-56
2022/11/12 06:16:04;;;;;;;16.07;7.13;;;11.80;99.90;;;;;;5033387;28;20892;-55
2022/11/12 06:18:30;;;;;;;12.97;6.20;;;11.90;99.90;;;;;;5033173;28;20698;-55
2022/11/12 06:21:21;;;;;;;14.13;6.30;;;12.00;99.90;;;;;;5033153;28;20170;-55
2022/11/12 06:23:56;;;;;;;13.03;6.97;;;11.90;99.90;;;;;;5033115;28;20212;-55
2022/11/12 06:26:24;;;;;;;11.27;6.67;;;11.70;99.90;;;;;;5033043;28;20170;-56
2022/11/12 06:28:50;;;;;;;12.50;6.13;;;12.20;99.90;;;;;;5032555;28;20220;-55
2022/11/12 06:31:16;;;;;;;14.43;6.90;;;11.80;99.90;;;;;;5029622;28;20652;-55
2022/11/12 06:33:43;;;;;;;12.17;6.33;;;12.10;99.90;;;;;;5030954;28;20190;-55
2022/11/12 06:36:10;;;;;;;19.03;6.07;;;12.10;99.90;;;;;;5017098;28;20209;-55
2022/11/12 06:38:38;;;;;;;13.70;6.63;;;11.90;99.90;;;;;;5022559;28;20202;-55
2022/11/12 06:41:05;;;;;;;13.63;7.13;;;11.90;99.90;;;;;;5021742;28;20177;-55
2022/11/12 06:43:33;;;;;;;16.53;6.63;;;11.90;99.90;;;;;;5032283;28;20190;-55
2022/11/12 06:46:08;;;;;;;19.90;6.50;;;11.80;99.90;;;;;;5032643;28;20177;-55
2022/11/12 06:48:34;;;;;;;13.30;6.67;;;12.00;99.90;;;;;;5032526;28;20288;-55
2022/11/12 06:51:06;;;;;;;13.53;6.57;;;12.00;99.90;;;;;;5032622;28;20222;-56
2022/11/12 06:53:32;;;;;;;12.83;7.03;;;;;;;;;;5032395;28;20588;-55
2022/11/12 06:56:03;;;;;;;12.60;6.40;;;11.70;99.90;;;;;;5031668;28;20689;-56
2022/11/12 06:58:29;;;;;;;15.93;6.80;;;12.00;99.90;;;;;;5032243;28;20178;-55
2022/11/12 07:00:55;;;;;;;15.03;7.10;;;11.90;99.90;;;;;;5032037;28;20659;-55
2022/11/12 07:03:21;;;;;;;13.13;7.03;;;11.80;99.90;;;;;;5031136;28;20182;-56
2022/11/12 07:05:46;;;;;;;15.13;6.90;;;11.90;99.90;;;;;;5032124;28;20178;-56
2022/11/12 07:08:12;;;;;;;13.63;7.57;;;11.90;99.90;;;;;;5032052;28;20284;-56
2022/11/12 07:10:37;;;;;;;13.57;7.80;;;12.10;99.90;;;;;;5032107;28;20231;-56
2022/11/12 07:13:03;;;;;;;16.87;7.90;;;12.00;99.90;;;;;;5032090;28;20185;-56
2022/11/12 07:15:29;;;;;;;12.43;7.60;;;12.00;99.90;;;;;;5032018;28;20652;-56
2022/11/12 07:17:54;;;;;;;18.13;7.93;;;11.90;99.90;;;;;;5031980;28;20546;-56
2022/11/12 07:20:20;;;;;;;18.57;7.93;;;10.00;99.90;;;;;;5031629;28;20579;-58
2022/11/12 07:22:46;;;;;;;17.07;8.07;;;12.00;99.90;;;;;;5031005;28;20173;-56
2022/11/12 07:25:11;;;;;;;17.63;8.83;;;12.00;99.90;;;;;;5027693;28;20178;-56
2022/11/12 07:27:37;;;;;;;18.90;8.43;;;11.90;99.90;;;;;;5010963;28;20189;-57
2022/11/12 07:30:03;;;;;;;15.77;8.30;;;12.00;99.90;;;;;;5031538;28;20205;-57
2022/11/12 07:32:29;;;;;;;17.17;8.43;;;12.10;99.90;;;;;;5031721;28;20173;-57
2022/11/12 07:34:54;;;;;;;15.77;8.70;;;12.10;99.90;;;;;;5031787;28;20178;-57
2022/11/12 07:37:20;;;;;;;17.63;8.67;;;12.10;99.90;;;;;;5031727;28;20629;-57
2022/11/12 07:39:46;;;;;;;13.77;7.80;;;12.10;99.90;;;;;;5031484;28;20220;-57
2022/11/12 07:42:11;;;;;;;13.63;8.83;;;12.20;99.90;;;;;;5031648;28;20228;-56
2022/11/12 07:44:37;;;;;;;17.03;8.63;;;12.10;99.90;;;;;;5023255;28;20653;-61
2022/11/12 07:47:03;;;;;;;18.73;9.83;;;12.20;99.90;;;;;;5030433;28;20181;-58
2022/11/12 07:49:28;;;;;;;14.47;9.13;;;12.10;99.90;;;;;;5030736;28;20253;-58
2022/11/12 07:51:54;;;;;;;18.53;9.90;;;12.20;99.90;;;;;;5031078;28;20257;-58
2022/11/12 07:54:20;;;;;;;20.43;9.93;;;12.20;99.90;;;;;;5031297;28;20253;-58
2022/11/12 07:56:45;;;;;;;17.60;9.77;;;12.20;99.90;;;;;;5014475;28;20217;-58
2022/11/12 07:59:11;;;;;;;19.10;10.77;;;12.20;99.90;;;;;;5011289;28;20715;-59
2022/11/12 08:01:38;;;;;;;17.20;10.17;;;12.30;99.90;;;;;;5011393;28;20246;-59
2022/11/12 08:04:05;;;;;;;17.83;9.97;;;12.30;99.90;;;;;;5025069;28;20184;-57
2022/11/12 08:06:32;;;;;;;19.67;10.50;;;12.50;99.90;;;;;;5031220;28;20205;-57
2022/11/12 08:09:00;;;;;;;18.63;9.87;;;12.20;99.90;;;;;;5031147;28;20173;-57
2022/11/12 08:11:25;;;;;;;19.63;9.20;;;12.30;99.90;;;;;;5031418;28;20205;-57
2022/11/12 08:13:52;;;;;;;19.53;11.07;;;12.40;99.90;;;;;;5030763;28;20624;-56
2022/11/12 08:16:18;;;;;;;32.20;11.33;;;12.40;99.90;;;;;;5030751;28;20307;-56
2022/11/12 08:18:44;;;;;;;17.37;10.40;;;12.40;99.90;;;;;;5029974;28;20181;-57
2022/11/12 08:21:13;;;;;;;16.23;10.23;;;12.70;99.90;;;;;;5005582;28;20189;-57
2022/11/12 08:23:39;;;;;;;18.07;10.33;;;12.40;99.90;;;;;;5031011;28;20200;-57
2022/11/12 08:26:07;;;;;;;22.63;11.30;;;12.40;99.90;;;;;;5030964;28;20170;-56
2022/11/12 08:28:35;;;;;;;17.10;10.40;;;12.50;99.90;;;;;;5024361;28;20186;-58
2022/11/12 08:31:06;;;;;;;17.83;10.97;;;12.50;99.90;;;;;;5030537;28;20216;-58
2022/11/12 08:33:32;;;;;;;19.90;11.07;;;12.60;99.90;;;;;;5030179;28;20299;-58
2022/11/12 08:35:58;;;;;;;17.20;11.43;;;12.60;99.90;;;;;;5030877;28;20186;-58
2022/11/12 08:38:23;;;;;;;20.03;11.30;;;12.80;99.90;;;;;;5030290;28;20269;-59
2022/11/12 08:40:49;;;;;;;21.53;11.83;;;12.60;99.90;;;;;;5028610;28;20260;-58
2022/11/12 08:43:15;;;;;;;17.50;11.97;;;12.60;99.90;;;;;;5028330;28;20180;-59
2022/11/12 08:45:41;;;;;;;20.73;11.90;;;12.90;99.90;;;;;;5028795;28;20697;-58
2022/11/12 08:48:15;;;;;;;21.03;11.73;;;12.70;99.90;;;;;;5028794;28;20162;-58
2022/11/12 08:50:41;;;;;;;21.27;11.07;;;12.70;99.90;;;;;;5028624;28;20292;-58
2022/11/12 08:53:09;;;;;;;17.90;11.20;;;12.80;99.90;;;;;;5029090;28;20257;-58
2022/11/12 08:55:35;;;;;;;21.87;12.37;;;;;;;;;;5028297;28;20173;-58
2022/11/12 08:58:02;;;;;;;19.40;12.20;;;12.90;99.90;;;;;;5028103;28;20252;-59
2022/11/12 09:00:29;;;;;;;24.47;12.40;;;12.80;99.90;;;;;;5028413;28;20379;-58
2022/11/12 09:02:55;;;;;;;22.07;12.03;;;12.60;99.90;;;;;;5028603;28;20170;-58
2022/11/12 09:05:21;;;;;;;20.57;11.90;;;12.80;99.90;;;;;;5028966;28;20568;-58
2022/11/12 09:07:46;;;;;;;19.03;12.20;;;13.00;99.90;;;;;;5030155;28;20256;-58
2022/11/12 09:10:12;;;;;;;19.27;11.90;;;12.80;99.90;;;;;;5030369;28;20226;-58
2022/11/12 09:12:38;;;;;;;20.07;11.63;;;12.80;99.90;;;;;;5030070;28;20182;-58
2022/11/12 09:15:05;;;;;;;18.30;10.80;;;12.90;99.90;;;;;;5029464;28;20205;-58
2022/11/12 09:17:31;;;;;;;21.80;11.37;;;13.40;99.90;;;;;;5029108;28;20174;-58
2022/11/12 09:19:57;;;;;;;19.43;10.37;;;13.30;99.90;;;;;;5032411;28;20645;-58
2022/11/12 09:22:23;;;;;;;15.87;10.03;;;13.40;99.90;;;;;;5034007;28;20229;-58
2022/11/12 09:24:49;;;;;;;18.87;9.67;;;;;;;;;;5034143;28;20180;-58
2022/11/12 09:27:14;;;;;;;16.60;8.90;;;13.60;99.90;;;;;;5015651;28;20198;-58
2022/11/12 09:29:40;;;;;;;19.50;9.77;;;13.60;99.90;;;;;;5033069;28;20764;-58
2022/11/12 09:32:06;;;;;;;17.97;9.63;;;13.30;99.90;;;;;;5033405;28;20189;-58
2022/11/12 09:34:32;;;;;;;17.23;11.23;;;13.50;99.90;;;;;;5034110;28;20180;-57
2022/11/12 09:36:57;;;;;;;17.83;10.83;;;13.50;99.90;;;;;;5033991;28;20209;-57
2022/11/12 09:39:23;;;;;;;21.20;10.20;;;13.60;99.90;;;;;;5033846;28;20198;-58
2022/11/12 09:41:48;;;;;;;15.60;9.30;;;13.40;99.90;;;;;;5033714;28;20213;-58
2022/11/12 09:44:20;;;;;;;16.37;10.00;;;13.70;99.90;;;;;;5033823;28;20595;-57
2022/11/12 09:46:58;;;;;;;15.87;9.30;;;13.70;99.90;;;;;;5033362;28;20177;-58
2022/11/12 09:49:32;;;;;;;22.45;10.15;;;13.80;99.90;;;;;;5031672;28;20280;-58
2022/11/12 09:52:10;;;;;;;16.20;9.93;;;13.80;99.90;;;;;;5033115;28;20178;-58
2022/11/12 09:54:36;;;;;;;14.83;9.10;;;13.80;99.90;;;;;;5033217;28;20288;-58
2022/11/12 09:57:02;;;;;;;14.65;8.95;;;13.80;99.90;;;;;;5033513;28;20261;-58
2022/11/12 09:59:30;;;;;;;16.07;9.77;;;13.80;99.90;;;;;;5033205;28;20687;-57
2022/11/12 10:01:56;;;;;;;16.70;9.45;;;14.10;99.90;;;;;;5033183;28;20562;-56
2022/11/12 10:04:40;;;;;;;18.13;9.95;;;14.00;99.90;;;;;;5033199;28;20687;-56
2022/11/12 10:07:53;;;;;;;14.27;9.10;;;14.20;99.90;;;;;;5033396;28;20162;-56
2022/11/12 10:10:32;;;;;;;14.98;9.20;;;14.40;99.90;;;;;;5032795;28;20420;-56
2022/11/12 10:13:15;;;;;;;16.38;9.50;;;14.70;99.90;;;;;;5028218;28;20656;-56
2022/11/12 10:19:24;;;;;;;20.75;8.95;;;15.50;99.90;;;;;;5033527;28;20714;-61
2022/11/12 10:22:01;;;;;;;14.07;8.85;;;15.40;99.90;;;;;;5032989;28;20165;-56
2022/11/12 10:24:33;;;;;;;13.80;7.90;;;15.70;99.90;;;;;;5032863;28;20201;-58
2022/11/12 10:27:01;;;;;;;15.65;7.90;;;16.10;99.90;;;;;;5033158;28;20205;-59
2022/11/12 10:29:44;;;;;;;15.65;7.97;;;16.50;99.90;;;;;;5032799;28;20190;-57
2022/11/12 10:32:13;;;;;;;10.88;7.38;;;17.00;99.90;;;;;;5030298;28;20173;-56
2022/11/12 10:34:39;;;;;;;15.73;7.50;;;16.80;99.90;;;;;;5031977;28;20570;-56
2022/11/12 10:37:12;;;;;;;16.58;7.40;;;16.70;99.90;;;;;;5032383;28;20186;-56
2022/11/12 10:39:45;;;;;;;13.57;6.85;;;16.90;99.90;;;;;;5032652;28;20204;-56
2022/11/12 10:42:13;;;;;;;10.30;6.88;;;17.30;99.90;;;;;;5032684;28;20166;-56
2022/11/12 10:44:41;;;;;;;11.57;6.90;;;17.20;99.90;;;;;;5032624;28;20254;-56
2022/11/12 10:47:41;;;;;;;12.35;6.90;;;17.40;99.90;;;;;;5032593;28;20178;-56
2022/11/12 10:50:07;;;;;;;12.18;6.40;;;17.40;99.90;;;;;;5028715;28;20360;-56
2022/11/12 10:52:33;;;;;;;13.15;6.53;;;17.20;99.90;;;;;;5032341;28;20252;-56
2022/11/12 10:55:20;;;;;;;10.38;6.40;;;17.30;99.90;;;;;;5032396;28;20173;-56
2022/11/12 10:57:46;;;;;;;12.52;5.63;;;17.50;99.90;;;;;;5032364;28;20249;-56
2022/11/12 11:00:11;;;;;;;11.98;5.53;;;17.60;99.90;;;;;;5032131;28;20670;-56
2022/11/12 11:02:37;;;;;;;10.38;5.28;;;;;;;;;;5032203;28;20166;-56
2022/11/12 11:05:25;;;;;;;10.82;5.68;;;17.40;99.90;;;;;;5031760;28;20194;-56
2022/11/12 11:07:50;;;;;;;9.18;4.93;;;17.50;99.90;;;;;;5032151;28;20276;-56
2022/11/12 11:10:28;;;;;;;8.65;5.30;;;18.30;99.90;;;;;;5032042;28;20287;-56
2022/11/12 11:13:21;;;;;;;9.05;5.15;;;19.30;99.90;;;;;;5031759;28;20169;-55
2022/11/12 11:16:05;;;;;;;6.97;4.47;;;19.90;99.90;;;;;;5032838;28;20252;-55
2022/11/12 11:18:36;;;;;;;8.98;4.13;;;22.70;99.90;;;;;;5031869;28;20189;-55
2022/11/12 11:21:39;;;;;;;9.25;4.40;;;22.50;99.90;;;;;;5031471;28;20178;-55
2022/11/12 11:24:19;;;;;;;6.97;3.70;;;23.70;99.90;;;;;;5032058;28;20177;-55
2022/11/12 11:26:55;;;;;;;9.40;3.53;;;23.60;99.90;;;;;;5031462;28;20256;-55
2022/11/12 11:29:46;;;;;;;5.50;3.50;;;22.60;99.90;;;;;;5031495;28;20182;-55
2022/11/12 11:32:45;;;;;;;8.52;4.00;;;22.60;99.90;;;;;;5031519;28;20184;-55
2022/11/12 11:35:25;;;;;;;10.57;4.00;;;23.20;99.90;;;;;;5031556;28;20239;-55
2022/11/12 11:38:02;;;;;;;6.22;3.72;;;23.20;99.90;;;;;;5031582;28;20189;-55
2022/11/12 11:40:35;;;;;;;8.90;3.80;;;24.60;99.90;;;;;;5031506;28;20708;-55
2022/11/12 11:43:10;;;;;;;6.05;3.30;;;25.30;99.90;;;;;;5031225;28;20633;-55
2022/11/12 11:46:01;;;;;;;6.35;3.45;;;24.20;99.90;;;;;;5030899;28;20212;-55
2022/11/12 11:48:59;;;;;;;7.32;3.70;;;26.40;99.90;;;;;;5031232;28;20177;-56
2022/11/12 11:52:13;;;;;;;8.23;3.30;;;25.70;99.90;;;;;;4987181;28;20700;-56
2022/11/12 11:54:42;;;;;;;8.90;3.28;;;26.70;99.90;;;;;;4950803;29;20188;-56
2022/11/12 11:57:27;;;;;;;7.13;2.95;;;27.40;99.90;;;;;;4950942;29;20207;-56
2022/11/12 12:00:18;;;;;;;6.15;3.05;;;27.20;99.90;;;;;;5006002;28;20225;-56
2022/11/12 12:03:19;;;;;;;8.85;3.00;;;27.40;99.90;;;;;;5031157;28;20652;-55
2022/11/12 12:06:23;;;;;;;6.50;2.97;;;26.60;99.90;;;;;;5020287;28;20272;-55
2022/11/12 12:09:03;;;;;;;5.78;3.13;;;24.80;99.90;;;;;;4990724;28;20268;-55
2022/11/12 12:11:42;;;;;;;8.40;3.30;;;27.10;99.90;;;;;;5030812;28;20208;-55
2022/11/12 12:14:36;;;;;;;10.80;3.20;;;25.80;99.90;;;;;;5030932;28;20161;-55
2022/11/12 12:17:07;;;;;;;6.15;3.00;;;26.00;99.90;;;;;;5011290;28;20166;-55
2022/11/12 12:19:55;;;;;;;7.50;2.95;;;25.60;99.90;;;;;;5021739;28;20177;-55
2022/11/12 12:22:39;;;;;;;7.65;3.53;;;24.20;99.90;;;;;;5030973;28;20182;-55
2022/11/12 12:25:14;;;;;;;6.00;3.13;;;25.40;99.90;;;;;;5030082;28;20308;-55
2022/11/12 12:28:12;;;;;;;10.77;3.55;;;26.80;99.90;;;;;;5030635;28;20178;-55
2022/11/12 12:30:46;;;;;;;5.78;3.10;;;26.70;99.90;;;;;;4996990;28;20569;-54
2022/11/12 12:33:28;;;;;;;9.70;3.75;;;23.90;99.90;;;;;;5030647;28;20187;-54
2022/11/12 12:36:00;;;;;;;9.45;3.30;;;25.10;99.90;;;;;;5030853;28;20228;-55
2022/11/12 12:39:01;;;;;;;7.05;3.17;;;24.90;99.90;;;;;;5030719;28;20182;-56
2022/11/12 12:41:45;;;;;;;6.28;3.00;;;23.60;99.90;;;;;;5030189;28;20235;-55
2022/11/12 12:44:11;;;;;;;8.73;3.17;;;25.20;99.90;;;;;;5030764;28;20169;-55
2022/11/12 12:46:55;;;;;;;6.22;2.70;;;25.20;99.90;;;;;;5030656;28;20170;-55
2022/11/12 12:49:30;;;;;;;6.63;3.00;;;25.10;99.90;;;;;;5030502;28;20174;-55
2022/11/12 12:51:58;;;;;;;6.57;2.78;;;24.70;99.90;;;;;;5030497;28;20713;-56
2022/11/12 12:54:51;;;;;;;7.07;2.92;;;25.10;99.90;;;;;;5031293;28;20186;-55
2022/11/12 12:57:27;;;;;;;5.70;2.75;;;25.10;99.90;;;;;;5034387;28;20185;-55
2022/11/12 13:00:29;;;;;;;9.20;3.22;;;26.20;99.90;;;;;;5034191;28;20217;-55
2022/11/12 13:02:55;;;;;;;8.27;3.00;;;25.60;99.90;;;;;;4993053;28;20197;-55
2022/11/12 13:05:33;;;;;;;5.68;2.72;;;25.80;99.90;;;;;;5033488;28;20183;-55
2022/11/12 13:08:04;;;;;;;6.32;3.10;;;26.40;99.90;;;;;;5031688;28;20189;-56
2022/11/12 13:10:42;;;;;;;7.43;3.05;;;26.90;99.90;;;;;;5034560;28;20213;-56
2022/11/12 13:13:16;;;;;;;10.18;2.90;;;26.00;99.90;;;;;;5031681;28;20194;-56
2022/11/12 13:15:52;;;;;;;9.40;2.90;;;26.30;99.90;;;;;;5018732;28;20205;-55
2022/11/12 13:18:37;;;;;;;10.48;2.67;;;26.60;99.90;;;;;;5014438;28;20182;-55
2022/11/12 13:21:18;;;;;;;8.43;3.10;;;26.50;99.90;;;;;;5021298;28;20260;-55